Terminal Aerodrome Forecast
Issued by NWS

Home | Current Version | Previous Version | Text Only | Print | Product List | Glossary On
Versions: 1 2 3 4 5 6 7 8 9 10 11 12 13 14 15 16 17 18 19 20 21 22 23 24 25 26
000
FTUS43 KDMX 011749 AAA
TAFMCW
TAF AMD
KMCW 011749Z 0118/0218 19024G35KT P6SM SKC
     FM020000 19012KT P6SM SKC
     FM020500 20012G20KT 5SM -TSRA OVC025CB
      TEMPO 0205/0208 1SM TSRA OVC010CB
     FM021200 34010KT P6SM SCT050 BKN150=

USA.gov is the U.S. government's official web portal to all federal, state and local government web resources and services.